Time,TemperatureF,DewpointF,PressureIn,WindDirection,WindDirectionDegrees,WindSpeedMPH,WindSpeedGustMPH,Humidity,HourlyPrecipIn,Conditions,Clouds,dailyrainin,SoftwareType,DateUTC
2013-01-26 00:00:00,17.5,-4.4,29.96,West,279,1.0,2.0,37,0.00,,,0.00,Wunderground v.1.12,2013-01-26 05:00:00,
2013-01-26 00:01:00,17.5,-4.4,29.96,West,279,1.0,3.0,37,0.00,,,0.00,Wunderground v.1.12,2013-01-26 05:01:00,
2013-01-26 00:03:00,17.5,-5.0,29.96,West,279,1.0,3.0,36,0.00,,,0.00,Wunderground v.1.12,2013-01-26 05:03:00,
2013-01-26 00:08:00,17.5,-3.8,29.96,West,279,2.0,5.0,38,0.00,,,0.00,Wunderground v.1.12,2013-01-26 05:08:00,
2013-01-26 00:10:00,17.3,-3.5,29.96,West,279,2.0,5.0,39,0.00,,,0.00,Wunderground v.1.12,2013-01-26 05:10:00,
2013-01-26 00:16:00,17.2,-0.5,29.96,West,279,3.0,3.0,45,0.00,,,0.00,Wunderground v.1.12,2013-01-26 05:16:00,
2013-01-26 00:23:00,17.2,0.4,29.96,West,270,2.0,10.0,47,0.00,,,0.00,Wunderground v.1.12,2013-01-26 05:23:00,
2013-01-26 00:28:00,16.4,3.8,29.96,West,279,4.0,6.0,57,0.00,,,0.00,Wunderground v.1.12,2013-01-26 05:28:00,
2013-01-26 00:33:00,16.1,3.9,29.96,West,280,4.0,6.0,58,0.00,,,0.00,Wunderground v.1.12,2013-01-26 05:33:00,
2013-01-26 00:39:00,16.1,5.4,29.96,West,280,2.0,2.0,62,0.00,,,0.00,Wunderground v.1.12,2013-01-26 05:39:00,
2013-01-26 00:44:00,15.9,6.9,29.96,West,281,1.0,1.0,67,0.00,,,0.00,Wunderground v.1.12,2013-01-26 05:44:00,
2013-01-26 00:50:00,15.7,7.6,29.95,West,281,1.0,1.0,70,0.00,,,0.00,Wunderground v.1.12,2013-01-26 05:50:00,
2013-01-26 00:56:00,15.4,8.0,29.95,West,281,1.0,2.0,72,0.00,,,0.00,Wunderground v.1.12,2013-01-26 05:56:00,
2013-01-26 01:03:00,15.4,8.6,29.95,West,281,1.0,1.0,74,0.00,,,0.00,Wunderground v.1.12,2013-01-26 06:03:00,
2013-01-26 01:08:00,15.4,9.2,29.95,West,281,0.0,3.0,76,0.00,,,0.00,Wunderground v.1.12,2013-01-26 06:08:00,
2013-01-26 01:14:00,15.2,9.0,29.95,West,281,1.0,1.0,76,0.00,,,0.00,Wunderground v.1.12,2013-01-26 06:14:00,
2013-01-26 01:20:00,15.2,9.3,29.94,West,281,1.0,1.0,77,0.00,,,0.00,Wunderground v.1.12,2013-01-26 06:20:00,
2013-01-26 01:25:00,15.1,9.2,29.94,West,281,1.0,1.0,77,0.00,,,0.00,Wunderground v.1.12,2013-01-26 06:25:00,
2013-01-26 01:31:00,14.9,9.0,29.94,West,281,1.0,3.0,77,0.00,,,0.00,Wunderground v.1.12,2013-01-26 06:31:00,
2013-01-26 01:38:00,14.9,9.3,29.94,West,281,0.0,2.0,78,0.00,,,0.00,Wunderground v.1.12,2013-01-26 06:38:00,
2013-01-26 01:43:00,14.9,9.6,29.94,West,281,0.0,1.0,79,0.00,,,0.00,Wunderground v.1.12,2013-01-26 06:43:00,
2013-01-26 01:49:00,14.8,9.5,29.94,West,281,0.0,0.0,79,0.00,,,0.00,Wunderground v.1.12,2013-01-26 06:49:00,
2013-01-26 01:55:00,14.8,9.5,29.94,West,281,0.0,0.0,79,0.00,,,0.00,Wunderground v.1.12,2013-01-26 06:55:00,
2013-01-26 02:01:00,14.6,9.0,29.94,West,281,2.0,4.0,78,0.00,,,0.00,Wunderground v.1.12,2013-01-26 07:01:00,
2013-01-26 02:06:00,14.4,8.8,29.93,West,281,2.0,2.0,78,0.00,,,0.00,Wunderground v.1.12,2013-01-26 07:06:00,
2013-01-26 02:13:00,14.4,9.1,29.93,West,281,1.0,2.0,79,0.00,,,0.00,Wunderground v.1.12,2013-01-26 07:13:00,
2013-01-26 02:18:00,14.4,9.1,29.93,West,281,1.0,3.0,79,0.00,,,0.00,Wunderground v.1.12,2013-01-26 07:18:00,
2013-01-26 02:24:00,14.4,9.1,29.93,West,270,1.0,7.0,79,0.00,,,0.00,Wunderground v.1.12,2013-01-26 07:24:00,
2013-01-26 02:29:00,14.3,9.0,29.93,West,281,1.0,1.0,79,0.00,,,0.00,Wunderground v.1.12,2013-01-26 07:29:00,
2013-01-26 02:35:00,14.3,9.0,29.93,West,281,1.0,1.0,79,0.00,,,0.00,Wunderground v.1.12,2013-01-26 07:35:00,
2013-01-26 02:40:00,14.3,9.0,29.93,West,281,1.0,1.0,79,0.00,,,0.00,Wunderground v.1.12,2013-01-26 07:40:00,
2013-01-26 02:46:00,14.1,8.8,29.93,West,281,0.0,1.0,79,0.00,,,0.00,Wunderground v.1.12,2013-01-26 07:46:00,
2013-01-26 02:53:00,14.1,8.8,29.91,West,270,1.0,4.0,79,0.00,,,0.00,Wunderground v.1.12,2013-01-26 07:53:00,
2013-01-26 02:58:00,14.0,8.7,29.91,West,281,1.0,3.0,79,0.00,,,0.00,Wunderground v.1.12,2013-01-26 07:58:00,
2013-01-26 03:03:00,14.0,8.7,29.91,West,281,1.0,1.0,79,0.00,,,0.00,Wunderground v.1.12,2013-01-26 08:03:00,
2013-01-26 03:08:00,14.0,8.4,29.91,West,281,1.0,1.0,78,0.00,,,0.00,Wunderground v.1.12,2013-01-26 08:08:00,
2013-01-26 03:13:00,13.8,8.5,29.91,West,281,1.0,3.0,79,0.00,,,0.00,Wunderground v.1.12,2013-01-26 08:13:00,
2013-01-26 03:19:00,13.8,8.2,29.91,West,281,1.0,1.0,78,0.00,,,0.00,Wunderground v.1.12,2013-01-26 08:19:00,
2013-01-26 03:25:00,13.6,8.0,29.91,West,281,0.0,0.0,78,0.00,,,0.00,Wunderground v.1.12,2013-01-26 08:25:00,
2013-01-26 03:31:00,13.6,8.0,29.91,West,281,0.0,1.0,78,0.00,,,0.00,Wunderground v.1.12,2013-01-26 08:31:00,
2013-01-26 03:38:00,13.3,8.0,29.91,West,281,0.0,0.0,79,0.00,,,0.00,Wunderground v.1.12,2013-01-26 08:38:00,
2013-01-26 03:43:00,13.3,8.0,29.91,West,281,0.0,0.0,79,0.00,,,0.00,Wunderground v.1.12,2013-01-26 08:43:00,
2013-01-26 03:48:00,12.9,7.6,29.90,West,281,0.0,1.0,79,0.00,,,0.00,Wunderground v.1.12,2013-01-26 08:48:00,
2013-01-26 03:53:00,12.8,7.5,29.90,West,281,0.0,0.0,79,0.00,,,0.00,Wunderground v.1.12,2013-01-26 08:53:00,
2013-01-26 03:58:00,12.4,7.1,29.90,West,281,0.0,0.0,79,0.00,,,0.00,Wunderground v.1.12,2013-01-26 08:58:00,
2013-01-26 04:04:00,12.3,7.0,29.91,West,281,0.0,0.0,79,0.00,,,0.00,Wunderground v.1.12,2013-01-26 09:04:00,
2013-01-26 04:10:00,12.1,7.1,29.91,West,281,0.0,1.0,80,0.00,,,0.00,Wunderground v.1.12,2013-01-26 09:10:00,
2013-01-26 04:16:00,12.1,7.4,29.91,West,281,1.0,1.0,81,0.00,,,0.00,Wunderground v.1.12,2013-01-26 09:16:00,
2013-01-26 04:21:00,12.1,7.1,29.90,West,281,0.0,2.0,80,0.00,,,0.00,Wunderground v.1.12,2013-01-26 09:21:00,
2013-01-26 04:28:00,11.7,6.7,29.90,West,281,0.0,1.0,80,0.00,,,0.00,Wunderground v.1.12,2013-01-26 09:28:00,
2013-01-26 04:33:00,11.7,7.0,29.90,West,281,0.0,0.0,81,0.00,,,0.00,Wunderground v.1.12,2013-01-26 09:33:00,
2013-01-26 04:38:00,11.6,6.9,29.90,West,281,0.0,2.0,81,0.00,,,0.00,Wunderground v.1.12,2013-01-26 09:38:00,
2013-01-26 04:43:00,11.6,6.9,29.90,West,281,0.0,2.0,81,0.00,,,0.00,Wunderground v.1.12,2013-01-26 09:43:00,
2013-01-26 04:48:00,11.6,6.9,29.90,West,281,0.0,0.0,81,0.00,,,0.00,Wunderground v.1.12,2013-01-26 09:48:00,
2013-01-26 04:53:00,11.4,6.7,29.90,West,281,0.0,0.0,81,0.00,,,0.00,Wunderground v.1.12,2013-01-26 09:53:00,
2013-01-26 04:59:00,11.4,6.7,29.90,West,281,0.0,0.0,81,0.00,,,0.00,Wunderground v.1.12,2013-01-26 09:59:00,
2013-01-26 05:04:00,11.2,6.5,29.91,West,281,0.0,0.0,81,0.00,,,0.00,Wunderground v.1.12,2013-01-26 10:04:00,
2013-01-26 05:10:00,10.9,6.2,29.91,West,281,0.0,0.0,81,0.00,,,0.00,Wunderground v.1.12,2013-01-26 10:10:00,
2013-01-26 05:16:00,10.7,6.0,29.91,West,281,0.0,0.0,81,0.00,,,0.00,Wunderground v.1.12,2013-01-26 10:16:00,
2013-01-26 05:23:00,10.7,6.0,29.90,West,270,0.0,2.0,81,0.00,,,0.00,Wunderground v.1.12,2013-01-26 10:23:00,
2013-01-26 05:28:00,10.7,6.3,29.90,West,281,0.0,0.0,82,0.00,,,0.00,Wunderground v.1.12,2013-01-26 10:28:00,
2013-01-26 05:33:00,10.5,5.8,29.91,West,281,0.0,0.0,81,0.00,,,0.00,Wunderground v.1.12,2013-01-26 10:33:00,
2013-01-26 05:38:00,10.2,5.5,29.91,West,281,0.0,0.0,81,0.00,,,0.00,Wunderground v.1.12,2013-01-26 10:38:00,
2013-01-26 05:44:00,10.2,5.8,29.91,West,281,0.0,0.0,82,0.00,,,0.00,Wunderground v.1.12,2013-01-26 10:44:00,
2013-01-26 05:50:00,10.2,5.8,29.92,West,281,0.0,1.0,82,0.00,,,0.00,Wunderground v.1.12,2013-01-26 10:50:00,
2013-01-26 05:55:00,10.2,5.8,29.92,West,281,0.0,0.0,82,0.00,,,0.00,Wunderground v.1.12,2013-01-26 10:55:00,
2013-01-26 06:00:00,10.0,5.6,29.92,West,281,0.0,0.0,82,0.00,,,0.00,Wunderground v.1.12,2013-01-26 11:00:00,
2013-01-26 06:06:00,10.0,5.6,29.92,West,281,0.0,0.0,82,0.00,,,0.00,Wunderground v.1.12,2013-01-26 11:06:00,
2013-01-26 06:13:00,10.0,5.6,29.92,West,281,0.0,0.0,82,0.00,,,0.00,Wunderground v.1.12,2013-01-26 11:13:00,
2013-01-26 06:19:00,9.7,5.3,29.93,West,281,0.0,0.0,82,0.00,,,0.00,Wunderground v.1.12,2013-01-26 11:19:00,
2013-01-26 06:25:00,9.7,5.3,29.93,West,281,0.0,0.0,82,0.00,,,0.00,Wunderground v.1.12,2013-01-26 11:25:00,
2013-01-26 06:30:00,9.5,5.1,29.93,West,281,0.0,2.0,82,0.00,,,0.00,Wunderground v.1.12,2013-01-26 11:30:00,
2013-01-26 06:36:00,9.5,5.4,29.93,West,281,0.0,1.0,83,0.00,,,0.00,Wunderground v.1.12,2013-01-26 11:36:00,
2013-01-26 06:41:00,9.7,5.6,29.93,West,281,1.0,1.0,83,0.00,,,0.00,Wunderground v.1.12,2013-01-26 11:41:00,
2013-01-26 06:48:00,10.0,5.9,29.93,West,281,1.0,2.0,83,0.00,,,0.00,Wunderground v.1.12,2013-01-26 11:48:00,
2013-01-26 06:53:00,10.0,5.9,29.93,West,270,1.0,7.0,83,0.00,,,0.00,Wunderground v.1.12,2013-01-26 11:53:00,
2013-01-26 06:58:00,10.2,5.8,29.93,West,281,0.0,1.0,82,0.00,,,0.00,Wunderground v.1.12,2013-01-26 11:58:00,
2013-01-26 07:04:00,10.4,6.0,29.93,West,281,0.0,0.0,82,0.00,,,0.00,Wunderground v.1.12,2013-01-26 12:04:00,
2013-01-26 07:09:00,10.5,5.8,29.93,West,281,0.0,0.0,81,0.00,,,0.00,Wunderground v.1.12,2013-01-26 12:09:00,
2013-01-26 07:15:00,10.7,6.0,29.93,West,281,1.0,1.0,81,0.00,,,0.00,Wunderground v.1.12,2013-01-26 12:15:00,
2013-01-26 07:21:00,10.9,6.2,29.94,West,281,1.0,1.0,81,0.00,,,0.00,Wunderground v.1.12,2013-01-26 12:21:00,
2013-01-26 07:26:00,10.9,5.9,29.94,West,281,1.0,2.0,80,0.00,,,0.00,Wunderground v.1.12,2013-01-26 12:26:00,
2013-01-26 07:33:00,11.1,6.1,29.94,West,281,2.0,3.0,80,0.00,,,0.00,Wunderground v.1.12,2013-01-26 12:33:00,
2013-01-26 07:38:00,11.1,5.9,29.94,West,281,2.0,3.0,79,0.00,,,0.00,Wunderground v.1.12,2013-01-26 12:38:00,
2013-01-26 07:43:00,11.2,6.0,29.94,West,281,2.0,2.0,79,0.00,,,0.00,Wunderground v.1.12,2013-01-26 12:43:00,
2013-01-26 07:49:00,11.2,5.7,29.94,West,281,3.0,3.0,78,0.00,,,0.00,Wunderground v.1.12,2013-01-26 12:49:00,
2013-01-26 07:55:00,11.4,5.9,29.94,West,281,2.0,4.0,78,0.00,,,0.00,Wunderground v.1.12,2013-01-26 12:55:00,
2013-01-26 08:00:00,11.4,5.6,29.94,West,281,2.0,2.0,77,0.00,,,0.00,Wunderground v.1.12,2013-01-26 13:00:00,
2013-01-26 08:05:00,11.6,5.8,29.94,West,281,1.0,2.0,77,0.00,,,0.00,Wunderground v.1.12,2013-01-26 13:05:00,
2013-01-26 08:11:00,11.7,5.6,29.94,West,281,1.0,2.0,76,0.00,,,0.00,Wunderground v.1.12,2013-01-26 13:11:00,
2013-01-26 08:18:00,11.9,5.5,29.95,West,281,2.0,3.0,75,0.00,,,0.00,Wunderground v.1.12,2013-01-26 13:18:00,
2013-01-26 08:23:00,11.9,5.2,29.95,West,281,2.0,3.0,74,0.00,,,0.00,Wunderground v.1.12,2013-01-26 13:23:00,
2013-01-26 08:28:00,12.1,5.1,29.95,West,281,2.0,3.0,73,0.00,,,0.00,Wunderground v.1.12,2013-01-26 13:28:00,
2013-01-26 08:34:00,12.1,4.8,29.95,West,281,2.0,2.0,72,0.00,,,0.00,Wunderground v.1.12,2013-01-26 13:34:00,
2013-01-26 08:39:00,12.3,4.7,29.95,West,281,2.0,2.0,71,0.00,,,0.00,Wunderground v.1.12,2013-01-26 13:39:00,
2013-01-26 08:45:00,12.4,4.5,29.95,West,281,2.0,3.0,70,0.00,,,0.00,Wunderground v.1.12,2013-01-26 13:45:00,
2013-01-26 08:51:00,12.6,4.7,29.95,WNW,283,2.0,2.0,70,0.00,,,0.00,Wunderground v.1.12,2013-01-26 13:51:00,
2013-01-26 08:56:00,12.8,4.2,29.95,WNW,284,3.0,3.0,68,0.00,,,0.00,Wunderground v.1.12,2013-01-26 13:56:00,
2013-01-26 09:03:00,12.8,4.2,29.95,WNW,284,3.0,5.0,68,0.00,,,0.00,Wunderground v.1.12,2013-01-26 14:03:00,
2013-01-26 09:08:00,13.3,4.4,29.95,WNW,284,2.0,5.0,67,0.00,,,0.00,Wunderground v.1.12,2013-01-26 14:08:00,
2013-01-26 09:14:00,13.6,3.7,29.95,WNW,284,3.0,3.0,64,0.00,,,0.00,Wunderground v.1.12,2013-01-26 14:14:00,
2013-01-26 09:19:00,14.0,4.1,29.95,WNW,286,3.0,3.0,64,0.00,,,0.00,Wunderground v.1.12,2013-01-26 14:19:00,
2013-01-26 09:24:00,14.4,4.4,29.95,WNW,286,2.0,2.0,64,0.00,,,0.00,Wunderground v.1.12,2013-01-26 14:24:00,
2013-01-26 09:30:00,14.9,4.2,29.95,WNW,286,2.0,4.0,62,0.00,,,0.00,Wunderground v.1.12,2013-01-26 14:30:00,
2013-01-26 09:36:00,15.2,3.4,29.96,WNW,294,3.0,7.0,59,0.00,,,0.00,Wunderground v.1.12,2013-01-26 14:36:00,
2013-01-26 09:41:00,15.4,3.6,29.96,WNW,296,3.0,6.0,59,0.00,,,0.00,Wunderground v.1.12,2013-01-26 14:41:00,
2013-01-26 09:49:00,15.7,2.8,29.95,WNW,296,3.0,4.0,56,0.00,,,0.00,Wunderground v.1.12,2013-01-26 14:49:00,
2013-01-26 09:54:00,16.1,3.5,29.95,WNW,300,2.0,3.0,57,0.00,,,0.00,Wunderground v.1.12,2013-01-26 14:54:00,
2013-01-26 09:59:00,16.4,3.0,29.95,WNW,299,2.0,6.0,55,0.00,,,0.00,Wunderground v.1.12,2013-01-26 14:59:00,
2013-01-26 10:04:00,16.4,2.6,29.95,NW,306,4.0,4.0,54,0.00,,,0.00,Wunderground v.1.12,2013-01-26 15:04:00,
2013-01-26 10:10:00,16.5,2.7,29.95,NW,307,3.0,4.0,54,0.00,,,0.00,Wunderground v.1.12,2013-01-26 15:10:00,
2013-01-26 10:15:00,16.7,2.9,29.95,NW,307,2.0,5.0,54,0.00,,,0.00,Wunderground v.1.12,2013-01-26 15:15:00,
2013-01-26 10:21:00,16.7,1.7,29.95,NW,308,3.0,4.0,51,0.00,,,0.00,Wunderground v.1.12,2013-01-26 15:21:00,
2013-01-26 10:26:00,16.7,1.7,29.95,NW,308,3.0,3.0,51,0.00,,,0.00,Wunderground v.1.12,2013-01-26 15:26:00,
2013-01-26 10:31:00,17.0,1.5,29.95,NW,308,3.0,4.0,50,0.00,,,0.00,Wunderground v.1.12,2013-01-26 15:31:00,
2013-01-26 10:38:00,17.8,1.8,29.95,NW,304,2.0,4.0,49,0.00,,,0.00,Wunderground v.1.12,2013-01-26 15:38:00,
2013-01-26 10:43:00,18.3,2.7,29.95,NW,304,2.0,3.0,50,0.00,,,0.00,Wunderground v.1.12,2013-01-26 15:43:00,
2013-01-26 10:48:00,18.3,1.4,29.95,NW,304,2.0,7.0,47,0.00,,,0.00,Wunderground v.1.12,2013-01-26 15:48:00,
2013-01-26 10:53:00,18.0,0.7,29.95,WNW,297,4.0,7.0,46,0.00,,,0.00,Wunderground v.1.12,2013-01-26 15:53:00,
2013-01-26 10:59:00,18.4,1.0,29.95,NW,311,4.0,4.0,46,0.00,,,0.00,Wunderground v.1.12,2013-01-26 15:59:00,
2013-01-26 11:05:00,19.1,2.1,29.94,NW,309,3.0,5.0,47,0.00,,,0.00,Wunderground v.1.12,2013-01-26 16:05:00,
2013-01-26 11:10:00,18.8,0.5,29.94,West,271,5.0,6.0,44,0.00,,,0.00,Wunderground v.1.12,2013-01-26 16:10:00,
2013-01-26 11:16:00,18.9,0.5,29.94,West,275,7.0,7.0,44,0.00,,,0.00,Wunderground v.1.12,2013-01-26 16:16:00,
2013-01-26 11:21:00,19.2,1.8,29.94,West,277,5.0,6.0,46,0.00,,,0.00,Wunderground v.1.12,2013-01-26 16:21:00,
2013-01-26 11:28:00,20.3,1.8,29.94,NNW,332,3.0,7.0,44,0.00,,,0.00,Wunderground v.1.12,2013-01-26 16:28:00,
2013-01-26 11:33:00,20.2,1.7,29.93,NNW,327,4.0,7.0,44,0.00,,,0.00,Wunderground v.1.12,2013-01-26 16:33:00,
2013-01-26 11:39:00,20.0,1.1,29.93,West,265,5.0,6.0,43,0.00,,,0.00,Wunderground v.1.12,2013-01-26 16:39:00,
2013-01-26 11:44:00,20.0,2.0,29.93,WNW,283,5.0,5.0,45,0.00,,,0.00,Wunderground v.1.12,2013-01-26 16:44:00,
2013-01-26 11:50:00,20.0,0.6,29.92,WNW,295,6.0,6.0,42,0.00,,,0.00,Wunderground v.1.12,2013-01-26 16:50:00,
2013-01-26 11:56:00,20.3,1.3,29.92,WNW,285,7.0,9.0,43,0.00,,,0.00,Wunderground v.1.12,2013-01-26 16:56:00,
2013-01-26 12:03:00,20.8,2.8,29.92,NW,321,4.0,6.0,45,0.00,,,0.00,Wunderground v.1.12,2013-01-26 17:03:00,
2013-01-26 12:08:00,21.1,1.6,29.92,NNW,338,4.0,9.0,42,0.00,,,0.00,Wunderground v.1.12,2013-01-26 17:08:00,
2013-01-26 12:13:00,21.1,1.0,29.92,WNW,285,4.0,7.0,41,0.00,,,0.00,Wunderground v.1.12,2013-01-26 17:13:00,
2013-01-26 12:19:00,21.1,1.0,29.91,WNW,290,5.0,11.0,41,0.00,,,0.00,Wunderground v.1.12,2013-01-26 17:19:00,
2013-01-26 12:24:00,21.4,2.3,29.91,WNW,291,5.0,10.0,43,0.00,,,0.00,Wunderground v.1.12,2013-01-26 17:24:00,
2013-01-26 12:30:00,21.6,1.5,29.91,WNW,293,4.0,7.0,41,0.00,,,0.00,Wunderground v.1.12,2013-01-26 17:30:00,
2013-01-26 12:35:00,21.4,0.8,29.91,WNW,302,4.0,5.0,40,0.00,,,0.00,Wunderground v.1.12,2013-01-26 17:35:00,
2013-01-26 12:41:00,21.9,1.2,29.91,WNW,297,5.0,10.0,40,0.00,,,0.00,Wunderground v.1.12,2013-01-26 17:41:00,
2013-01-26 12:48:00,22.4,2.7,29.91,NW,321,5.0,8.0,42,0.00,,,0.00,Wunderground v.1.12,2013-01-26 17:48:00,
2013-01-26 12:53:00,23.0,1.1,29.91,NNW,336,4.0,8.0,38,0.00,,,0.00,Wunderground v.1.12,2013-01-26 17:53:00,
2013-01-26 12:59:00,23.2,1.9,29.91,NW,320,4.0,4.0,39,0.00,,,0.00,Wunderground v.1.12,2013-01-26 17:59:00,
2013-01-26 13:04:00,22.9,1.0,29.90,WNW,290,3.0,5.0,38,0.00,,,0.00,Wunderground v.1.12,2013-01-26 18:04:00,
2013-01-26 13:10:00,23.0,1.7,29.90,NW,317,4.0,4.0,39,0.00,,,0.00,Wunderground v.1.12,2013-01-26 18:10:00,
2013-01-26 13:15:00,23.5,1.0,29.90,WNW,300,3.0,3.0,37,0.00,,,0.00,Wunderground v.1.12,2013-01-26 18:15:00,
2013-01-26 13:20:00,23.6,0.5,29.90,NW,306,3.0,3.0,36,0.00,,,0.00,Wunderground v.1.12,2013-01-26 18:20:00,
2013-01-26 13:26:00,23.9,0.8,29.90,NNW,334,4.0,4.0,36,0.00,,,0.00,Wunderground v.1.12,2013-01-26 18:26:00,
2013-01-26 13:31:00,23.8,-0.5,29.90,West,275,4.0,6.0,34,0.00,,,0.00,Wunderground v.1.12,2013-01-26 18:31:00,
2013-01-26 13:38:00,23.0,-1.9,29.90,WNW,283,6.0,10.0,33,0.00,,,0.00,Wunderground v.1.12,2013-01-26 18:38:00,
2013-01-26 13:43:00,22.7,-2.8,29.90,NW,306,7.0,8.0,32,0.00,,,0.00,Wunderground v.1.12,2013-01-26 18:43:00,
2013-01-26 13:49:00,23.2,-0.5,29.90,WNW,298,6.0,6.0,35,0.00,,,0.00,Wunderground v.1.12,2013-01-26 18:49:00,
2013-01-26 13:55:00,23.2,-3.0,29.90,WNW,286,4.0,6.0,31,0.00,,,0.00,Wunderground v.1.12,2013-01-26 18:55:00,
2013-01-26 14:01:00,22.9,-4.0,29.90,West,281,5.0,7.0,30,0.00,,,0.00,Wunderground v.1.12,2013-01-26 19:01:00,
2013-01-26 14:08:00,22.5,-5.8,29.91,West,277,8.0,11.0,28,0.00,,,0.00,Wunderground v.1.12,2013-01-26 19:08:00,
2013-01-26 14:13:00,22.5,-4.3,29.91,WNW,297,8.0,8.0,30,0.00,,,0.00,Wunderground v.1.12,2013-01-26 19:13:00,
2013-01-26 14:18:00,22.7,-6.3,29.91,West,268,8.0,13.0,27,0.00,,,0.00,Wunderground v.1.12,2013-01-26 19:18:00,
2013-01-26 14:23:00,22.9,-5.4,29.91,WNW,296,9.0,15.0,28,0.00,,,0.00,Wunderground v.1.12,2013-01-26 19:23:00,
2013-01-26 14:28:00,23.0,-5.3,29.91,WNW,284,8.0,13.0,28,0.00,,,0.00,Wunderground v.1.12,2013-01-26 19:28:00,
2013-01-26 14:34:00,23.0,-6.1,29.91,WNW,289,6.0,6.0,27,0.00,,,0.00,Wunderground v.1.12,2013-01-26 19:34:00,
2013-01-26 14:39:00,23.6,-5.6,29.91,WSW,257,5.0,13.0,27,0.00,,,0.00,Wunderground v.1.12,2013-01-26 19:39:00,
2013-01-26 14:44:00,22.7,-6.3,29.91,WNW,288,8.0,8.0,27,0.00,,,0.00,Wunderground v.1.12,2013-01-26 19:44:00,
2013-01-26 14:50:00,23.6,-4.8,29.91,West,277,6.0,7.0,28,0.00,,,0.00,Wunderground v.1.12,2013-01-26 19:50:00,
2013-01-26 14:55:00,23.5,-4.9,29.91,NW,306,5.0,6.0,28,0.00,,,0.00,Wunderground v.1.12,2013-01-26 19:55:00,
2013-01-26 15:01:00,23.0,-6.1,29.91,WNW,286,6.0,20.0,27,0.00,,,0.00,Wunderground v.1.12,2013-01-26 20:01:00,
2013-01-26 15:06:00,22.4,-5.8,29.93,WNW,294,9.0,15.0,28,0.00,,,0.00,Wunderground v.1.12,2013-01-26 20:06:00,
2013-01-26 15:13:00,22.5,-7.3,29.93,WNW,297,8.0,10.0,26,0.00,,,0.00,Wunderground v.1.12,2013-01-26 20:13:00,
2013-01-26 15:18:00,22.5,-6.5,29.94,West,265,7.0,11.0,27,0.00,,,0.00,Wunderground v.1.12,2013-01-26 20:18:00,
2013-01-26 15:23:00,22.1,-7.6,29.94,West,278,9.0,11.0,26,0.00,,,0.00,Wunderground v.1.12,2013-01-26 20:23:00,
2013-01-26 15:28:00,22.1,-6.9,29.94,WNW,291,9.0,12.0,27,0.00,,,0.00,Wunderground v.1.12,2013-01-26 20:28:00,
2013-01-26 15:33:00,22.2,-6.8,29.94,WNW,297,8.0,13.0,27,0.00,,,0.00,Wunderground v.1.12,2013-01-26 20:33:00,
2013-01-26 15:41:00,21.8,-7.1,29.94,WNW,288,7.0,7.0,27,0.00,,,0.00,Wunderground v.1.12,2013-01-26 20:41:00,
2013-01-26 15:46:00,21.8,-6.4,29.94,WNW,298,7.0,7.0,28,0.00,,,0.00,Wunderground v.1.12,2013-01-26 20:46:00,
2013-01-26 15:53:00,21.6,-6.5,29.94,WNW,293,7.0,19.0,28,0.00,,,0.00,Wunderground v.1.12,2013-01-26 20:53:00,
2013-01-26 15:58:00,21.8,-6.4,29.95,WNW,291,5.0,5.0,28,0.00,,,0.00,Wunderground v.1.12,2013-01-26 20:58:00,
2013-01-26 16:04:00,21.0,-6.3,29.96,West,277,5.0,5.0,29,0.00,,,0.00,Wunderground v.1.12,2013-01-26 21:04:00,
2013-01-26 16:09:00,20.3,-7.7,29.96,WNW,299,8.0,10.0,28,0.00,,,0.00,Wunderground v.1.12,2013-01-26 21:09:00,
2013-01-26 16:15:00,20.0,-7.2,29.96,WNW,299,10.0,10.0,29,0.00,,,0.00,Wunderground v.1.12,2013-01-26 21:15:00,
2013-01-26 16:21:00,20.0,-7.2,29.96,WNW,291,8.0,9.0,29,0.00,,,0.00,Wunderground v.1.12,2013-01-26 21:21:00,
2013-01-26 16:28:00,19.9,-7.3,29.96,WNW,282,4.0,10.0,29,0.00,,,0.00,Wunderground v.1.12,2013-01-26 21:28:00,
2013-01-26 16:33:00,19.7,-7.5,29.97,West,272,5.0,10.0,29,0.00,,,0.00,Wunderground v.1.12,2013-01-26 21:33:00,
2013-01-26 16:38:00,19.4,-7.7,29.97,WSW,253,7.0,12.0,29,0.00,,,0.00,Wunderground v.1.12,2013-01-26 21:38:00,
2013-01-26 16:44:00,19.2,-7.9,29.97,WNW,288,8.0,13.0,29,0.00,,,0.00,Wunderground v.1.12,2013-01-26 21:44:00,
2013-01-26 16:49:00,19.2,-8.6,29.97,West,259,9.0,10.0,28,0.00,,,0.00,Wunderground v.1.12,2013-01-26 21:49:00,
2013-01-26 16:55:00,19.1,-8.7,29.97,WNW,290,9.0,9.0,28,0.00,,,0.00,Wunderground v.1.12,2013-01-26 21:55:00,
2013-01-26 17:00:00,19.1,-7.3,29.97,WNW,285,6.0,10.0,30,0.00,,,0.00,Wunderground v.1.12,2013-01-26 22:00:00,
2013-01-26 17:05:00,18.9,-8.2,29.98,WNW,295,6.0,6.0,29,0.00,,,0.00,Wunderground v.1.12,2013-01-26 22:05:00,
2013-01-26 17:11:00,18.9,-8.2,29.98,NW,325,6.0,7.0,29,0.00,,,0.00,Wunderground v.1.12,2013-01-26 22:11:00,
2013-01-26 17:16:00,18.8,-9.0,29.98,NW,319,7.0,8.0,28,0.00,,,0.00,Wunderground v.1.12,2013-01-26 22:16:00,
2013-01-26 17:23:00,18.8,-8.3,29.99,WNW,293,7.0,20.0,29,0.00,,,0.00,Wunderground v.1.12,2013-01-26 22:23:00,
2013-01-26 17:29:00,18.6,-8.4,29.99,WNW,292,4.0,6.0,29,0.00,,,0.00,Wunderground v.1.12,2013-01-26 22:29:00,
2013-01-26 17:34:00,18.6,-9.2,29.99,WNW,303,7.0,7.0,28,0.00,,,0.00,Wunderground v.1.12,2013-01-26 22:34:00,
2013-01-26 17:40:00,18.4,-8.6,29.99,WNW,291,6.0,7.0,29,0.00,,,0.00,Wunderground v.1.12,2013-01-26 22:40:00,
2013-01-26 17:45:00,18.3,-8.7,29.99,WNW,288,4.0,7.0,29,0.00,,,0.00,Wunderground v.1.12,2013-01-26 22:45:00,
2013-01-26 17:50:00,18.1,-8.9,29.99,WSW,250,4.0,11.0,29,0.00,,,0.00,Wunderground v.1.12,2013-01-26 22:50:00,
2013-01-26 17:56:00,18.1,-9.6,29.99,North,355,9.0,14.0,28,0.00,,,0.00,Wunderground v.1.12,2013-01-26 22:56:00,
2013-01-26 18:01:00,18.0,-9.7,29.99,WNW,293,8.0,9.0,28,0.00,,,0.00,Wunderground v.1.12,2013-01-26 23:01:00,
2013-01-26 18:06:00,18.0,-9.7,30.00,WNW,296,7.0,7.0,28,0.00,,,0.00,Wunderground v.1.12,2013-01-26 23:06:00,
2013-01-26 18:13:00,17.8,-9.9,30.00,WNW,290,7.0,11.0,28,0.00,,,0.00,Wunderground v.1.12,2013-01-26 23:13:00,
2013-01-26 18:18:00,17.8,-10.6,30.01,West,281,7.0,15.0,27,0.00,,,0.00,Wunderground v.1.12,2013-01-26 23:18:00,
2013-01-26 18:23:00,17.8,-10.6,30.01,WNW,293,9.0,14.0,27,0.00,,,0.00,Wunderground v.1.12,2013-01-26 23:23:00,
2013-01-26 18:29:00,17.8,-10.6,30.01,WNW,292,9.0,10.0,27,0.00,,,0.00,Wunderground v.1.12,2013-01-26 23:29:00,
2013-01-26 18:35:00,17.8,-9.9,30.02,West,277,8.0,8.0,28,0.00,,,0.00,Wunderground v.1.12,2013-01-26 23:35:00,
2013-01-26 18:41:00,17.8,-9.9,30.02,WNW,288,9.0,9.0,28,0.00,,,0.00,Wunderground v.1.12,2013-01-26 23:41:00,
2013-01-26 18:48:00,17.7,-10.0,30.02,WNW,298,8.0,10.0,28,0.00,,,0.00,Wunderground v.1.12,2013-01-26 23:48:00,
2013-01-26 18:53:00,17.7,-10.0,30.02,WNW,293,8.0,27.0,28,0.00,,,0.00,Wunderground v.1.12,2013-01-26 23:53:00,
2013-01-26 18:58:00,17.2,-10.4,30.02,West,278,5.0,15.0,28,0.00,,,0.00,Wunderground v.1.12,2013-01-26 23:58:00,
2013-01-26 19:03:00,17.0,-8.5,30.03,WNW,300,4.0,7.0,31,0.00,,,0.00,Wunderground v.1.12,2013-01-27 00:03:00,
2013-01-26 19:08:00,16.9,-8.6,30.03,WNW,282,3.0,5.0,31,0.00,,,0.00,Wunderground v.1.12,2013-01-27 00:08:00,
2013-01-26 19:13:00,16.9,-9.2,30.03,NW,306,4.0,8.0,30,0.00,,,0.00,Wunderground v.1.12,2013-01-27 00:13:00,
2013-01-26 19:18:00,16.9,-8.6,30.03,WNW,294,3.0,5.0,31,0.00,,,0.00,Wunderground v.1.12,2013-01-27 00:18:00,
2013-01-26 19:23:00,16.9,-8.6,30.03,NW,315,3.0,7.0,31,0.00,,,0.00,Wunderground v.1.12,2013-01-27 00:23:00,
2013-01-26 19:28:00,16.7,-9.4,30.03,WNW,295,6.0,12.0,30,0.00,,,0.00,Wunderground v.1.12,2013-01-27 00:28:00,
2013-01-26 19:34:00,16.7,-8.8,30.03,West,276,8.0,8.0,31,0.00,,,0.00,Wunderground v.1.12,2013-01-27 00:34:00,
2013-01-26 19:40:00,16.5,-8.3,30.03,WNW,283,8.0,9.0,32,0.00,,,0.00,Wunderground v.1.12,2013-01-27 00:40:00,
2013-01-26 19:45:00,16.4,-7.7,30.03,WNW,302,7.0,8.0,33,0.00,,,0.00,Wunderground v.1.12,2013-01-27 00:45:00,
2013-01-26 19:50:00,16.1,-6.8,30.04,West,273,5.0,6.0,35,0.00,,,0.00,Wunderground v.1.12,2013-01-27 00:50:00,
2013-01-26 19:56:00,15.9,-7.0,30.04,WNW,288,8.0,12.0,35,0.00,,,0.00,Wunderground v.1.12,2013-01-27 00:56:00,
2013-01-26 20:03:00,15.6,-7.2,30.04,WNW,290,11.0,16.0,35,0.00,,,0.00,Wunderground v.1.12,2013-01-27 01:03:00,
2013-01-26 20:08:00,15.4,-7.4,30.04,NW,305,12.0,15.0,35,0.00,,,0.00,Wunderground v.1.12,2013-01-27 01:08:00,
2013-01-26 20:13:00,15.2,-7.6,30.04,WNW,302,11.0,19.0,35,0.00,,,0.00,Wunderground v.1.12,2013-01-27 01:13:00,
2013-01-26 20:19:00,15.2,-7.6,30.04,WNW,299,12.0,12.0,35,0.00,,,0.00,Wunderground v.1.12,2013-01-27 01:19:00,
2013-01-26 20:24:00,14.9,-6.7,30.04,NW,308,9.0,9.0,37,0.00,,,0.00,Wunderground v.1.12,2013-01-27 01:24:00,
2013-01-26 20:29:00,14.8,-6.8,30.04,WNW,286,7.0,7.0,37,0.00,,,0.00,Wunderground v.1.12,2013-01-27 01:29:00,
2013-01-26 20:35:00,14.6,-6.4,30.05,WNW,284,7.0,7.0,38,0.00,,,0.00,Wunderground v.1.12,2013-01-27 01:35:00,
2013-01-26 20:41:00,14.3,-5.7,30.05,WNW,300,5.0,5.0,40,0.00,,,0.00,Wunderground v.1.12,2013-01-27 01:41:00,
2013-01-26 20:46:00,14.3,-6.2,30.05,WSW,252,5.0,11.0,39,0.00,,,0.00,Wunderground v.1.12,2013-01-27 01:46:00,
2013-01-26 20:51:00,14.1,-5.8,30.05,WNW,291,7.0,13.0,40,0.00,,,0.00,Wunderground v.1.12,2013-01-27 01:51:00,
2013-01-26 20:58:00,14.1,-5.8,30.05,West,269,9.0,16.0,40,0.00,,,0.00,Wunderground v.1.12,2013-01-27 01:58:00,
2013-01-26 21:03:00,14.0,-5.4,30.06,West,281,11.0,15.0,41,0.00,,,0.00,Wunderground v.1.12,2013-01-27 02:03:00,
2013-01-26 21:09:00,14.0,-5.4,30.06,WNW,285,10.0,10.0,41,0.00,,,0.00,Wunderground v.1.12,2013-01-27 02:09:00,
2013-01-26 21:15:00,13.8,-5.1,30.06,WNW,285,8.0,9.0,42,0.00,,,0.00,Wunderground v.1.12,2013-01-27 02:15:00,
2013-01-26 21:21:00,13.8,-4.6,30.07,West,275,7.0,11.0,43,0.00,,,0.00,Wunderground v.1.12,2013-01-27 02:21:00,
2013-01-26 21:26:00,13.6,-4.3,30.07,WNW,283,7.0,14.0,44,0.00,,,0.00,Wunderground v.1.12,2013-01-27 02:26:00,
2013-01-26 21:31:00,13.6,-4.3,30.07,WNW,290,7.0,11.0,44,0.00,,,0.00,Wunderground v.1.12,2013-01-27 02:31:00,
2013-01-26 21:38:00,13.5,-3.5,30.06,WNW,293,5.0,7.0,46,0.00,,,0.00,Wunderground v.1.12,2013-01-27 02:38:00,
2013-01-26 21:43:00,13.3,-3.7,30.06,West,265,6.0,11.0,46,0.00,,,0.00,Wunderground v.1.12,2013-01-27 02:43:00,
2013-01-26 21:49:00,13.5,-3.5,30.06,WNW,294,8.0,12.0,46,0.00,,,0.00,Wunderground v.1.12,2013-01-27 02:49:00,
2013-01-26 21:55:00,13.5,-3.0,30.06,WNW,289,7.0,7.0,47,0.00,,,0.00,Wunderground v.1.12,2013-01-27 02:55:00,
2013-01-26 22:00:00,13.3,-2.8,30.06,WNW,302,5.0,5.0,48,0.00,,,0.00,Wunderground v.1.12,2013-01-27 03:00:00,
2013-01-26 22:06:00,13.3,-2.8,30.06,West,264,5.0,13.0,48,0.00,,,0.00,Wunderground v.1.12,2013-01-27 03:06:00,
2013-01-26 22:13:00,13.3,-2.8,30.06,WNW,288,7.0,7.0,48,0.00,,,0.00,Wunderground v.1.12,2013-01-27 03:13:00,
2013-01-26 22:18:00,13.3,-2.3,30.07,WNW,298,6.0,7.0,49,0.00,,,0.00,Wunderground v.1.12,2013-01-27 03:18:00,
2013-01-26 22:26:00,13.3,-2.3,30.07,WNW,293,6.0,17.0,49,0.00,,,0.00,Wunderground v.1.12,2013-01-27 03:26:00,
2013-01-26 22:31:00,13.1,-2.1,30.07,WNW,290,6.0,6.0,50,0.00,,,0.00,Wunderground v.1.12,2013-01-27 03:31:00,
2013-01-26 22:36:00,13.1,-2.1,30.08,WNW,285,7.0,7.0,50,0.00,,,0.00,Wunderground v.1.12,2013-01-27 03:36:00,
2013-01-26 22:41:00,13.1,-1.7,30.08,WNW,290,6.0,6.0,51,0.00,,,0.00,Wunderground v.1.12,2013-01-27 03:41:00,
2013-01-26 22:48:00,13.1,-1.7,30.08,WNW,288,7.0,18.0,51,0.00,,,0.00,Wunderground v.1.12,2013-01-27 03:48:00,
2013-01-26 22:53:00,13.1,-1.7,30.08,WNW,285,8.0,8.0,51,0.00,,,0.00,Wunderground v.1.12,2013-01-27 03:53:00,
2013-01-26 22:58:00,13.1,-1.7,30.08,WNW,288,8.0,15.0,51,0.00,,,0.00,Wunderground v.1.12,2013-01-27 03:58:00,
2013-01-26 23:04:00,12.9,-1.4,30.08,WNW,286,8.0,8.0,52,0.00,,,0.00,Wunderground v.1.12,2013-01-27 04:04:00,
2013-01-26 23:09:00,13.1,-1.3,30.08,West,264,9.0,9.0,52,0.00,,,0.00,Wunderground v.1.12,2013-01-27 04:09:00,
2013-01-26 23:15:00,13.1,-1.3,30.08,WNW,299,8.0,10.0,52,0.00,,,0.00,Wunderground v.1.12,2013-01-27 04:15:00,
2013-01-26 23:21:00,13.1,-1.3,30.08,WNW,288,8.0,8.0,52,0.00,,,0.00,Wunderground v.1.12,2013-01-27 04:21:00,
2013-01-26 23:28:00,13.1,-0.9,30.08,WNW,295,7.0,9.0,53,0.00,,,0.00,Wunderground v.1.12,2013-01-27 04:28:00,
2013-01-26 23:33:00,13.1,-0.9,30.09,NW,304,7.0,11.0,53,0.00,,,0.00,Wunderground v.1.12,2013-01-27 04:33:00,
2013-01-26 23:39:00,13.1,-0.9,30.09,West,274,6.0,9.0,53,0.00,,,0.00,Wunderground v.1.12,2013-01-27 04:39:00,
2013-01-26 23:45:00,13.1,-0.5,30.09,West,278,6.0,9.0,54,0.00,,,0.00,Wunderground v.1.12,2013-01-27 04:45:00,
2013-01-26 23:50:00,13.1,-0.9,30.09,West,273,7.0,11.0,53,0.00,,,0.00,Wunderground v.1.12,2013-01-27 04:50:00,
2013-01-26 23:56:00,12.9,-0.6,30.09,WNW,296,7.0,9.0,54,0.00,,,0.00,Wunderground v.1.12,2013-01-27 04:56:00,